createdAt,value
2023-04-05T00:01:53.905Z,101791.23
2023-04-05T00:04:31.385Z,101791.42
2023-04-05T00:07:08.481Z,101789.48
2023-04-05T00:09:43.979Z,101787.01
2023-04-05T00:12:19.132Z,101785.96
2023-04-05T00:14:56.469Z,101788.41
2023-04-05T00:17:34.197Z,101787.11
2023-04-05T00:20:15.202Z,101786.73
2023-04-05T00:23:08.199Z,101780.77
2023-04-05T00:25:42.938Z,101777.52
2023-04-05T00:28:21.333Z,101775.15
2023-04-05T00:30:58.776Z,101776.84
2023-04-05T00:33:33.385Z,101774.91
2023-04-05T00:36:18.177Z,101771.36
2023-04-05T00:38:53.836Z,101769.29
2023-04-05T00:41:30.364Z,101767.48
2023-04-05T00:44:08.375Z,101770.30
2023-04-05T00:46:48.322Z,101766.70
2023-04-05T00:49:30.631Z,101767.02
2023-04-05T00:52:06.071Z,101763.78
2023-04-05T00:54:45.578Z,101758.42
2023-04-05T00:57:25.158Z,101758.95
2023-04-05T01:00:03.099Z,101760.13
2023-04-05T01:03:02.537Z,101764.05
2023-04-05T01:05:48.531Z,101767.63
2023-04-05T01:08:30.710Z,101768.46
2023-04-05T01:11:09.290Z,101767.91
2023-04-05T01:13:47.841Z,101761.45
2023-04-05T01:16:24.251Z,101759.98
2023-04-05T01:19:00.882Z,101750.64
2023-04-05T01:22:26.612Z,101751.34
2023-04-05T01:25:24.087Z,101744.38
2023-04-05T01:28:21.640Z,101743.08
2023-04-05T01:31:09.644Z,101742.35
2023-04-05T01:33:59.151Z,101742.40
2023-04-05T01:36:39.397Z,101745.51
2023-04-05T01:39:18.043Z,101743.12
2023-04-05T01:41:54.012Z,101740.00
2023-04-05T01:44:37.457Z,101740.38
2023-04-05T01:47:11.899Z,101733.52
2023-04-05T01:49:50.258Z,101734.13
2023-04-05T01:52:26.398Z,101734.49
2023-04-05T01:55:01.161Z,101734.38
2023-04-05T01:57:36.068Z,101735.08
2023-04-05T02:00:15.028Z,101735.41
2023-04-05T02:02:49.322Z,101733.71
2023-04-05T02:05:28.942Z,101733.74
2023-04-05T02:08:06.495Z,101734.81
2023-04-05T02:10:42.451Z,101732.92
2023-04-05T02:13:22.449Z,101735.41
2023-04-05T02:15:59.324Z,101728.29
2023-04-05T02:18:36.039Z,101725.96
2023-04-05T02:21:11.923Z,101726.40
2023-04-05T02:23:47.253Z,101725.85
2023-04-05T02:26:23.345Z,101725.52
2023-04-05T02:28:58.638Z,101723.82
2023-04-05T02:31:36.085Z,101731.35
2023-04-05T02:34:12.299Z,101732.41
2023-04-05T02:36:47.815Z,101736.52
2023-04-05T02:39:23.523Z,101732.36
2023-04-05T02:42:00.014Z,101735.54
2023-04-05T02:44:37.333Z,101730.90
2023-04-05T02:47:18.042Z,101728.37
2023-04-05T02:49:54.430Z,101731.63
2023-04-05T02:52:29.958Z,101728.67
2023-04-05T02:55:06.559Z,101727.43
2023-04-05T02:57:43.985Z,101723.50
2023-04-05T03:00:32.232Z,101721.23
2023-04-05T03:03:10.194Z,101720.77
2023-04-05T03:05:48.769Z,101723.68
2023-04-05T03:08:24.947Z,101724.58
2023-04-05T03:11:08.636Z,101725.16
2023-04-05T03:13:46.514Z,101717.51
2023-04-05T03:16:31.612Z,101721.09
2023-04-05T03:19:13.548Z,101719.56
2023-04-05T03:21:51.361Z,101721.68
2023-04-05T03:24:34.010Z,101724.55
2023-04-05T03:27:19.137Z,101725.09
2023-04-05T03:30:16.034Z,101721.70
2023-04-05T03:33:02.145Z,101723.04
2023-04-05T03:36:04.687Z,101723.91
2023-04-05T03:38:42.611Z,101724.61
2023-04-05T03:41:24.044Z,101719.24
2023-04-05T03:44:00.130Z,101717.40
2023-04-05T03:46:39.488Z,101715.60
2023-04-05T03:49:17.482Z,101715.30
2023-04-05T03:51:54.582Z,101716.05
2023-04-05T03:54:32.687Z,101713.65
2023-04-05T03:57:07.921Z,101713.16
2023-04-05T03:59:46.110Z,101710.36
2023-04-05T04:02:21.289Z,101711.75
2023-04-05T04:04:57.909Z,101713.88
2023-04-05T04:07:34.122Z,101715.13
2023-04-05T04:10:13.107Z,101713.93
2023-04-05T04:12:49.298Z,101716.38
2023-04-05T04:15:25.898Z,101716.80
2023-04-05T04:18:26.228Z,101720.83
2023-04-05T04:21:19.552Z,101725.38
2023-04-05T04:24:06.066Z,101727.17
2023-04-05T04:27:01.398Z,101728.52
2023-04-05T04:29:49.481Z,101731.50
2023-04-05T04:32:54.333Z,101730.53
2023-04-05T04:35:51.442Z,101729.27
2023-04-05T04:38:28.735Z,101730.44
2023-04-05T04:41:27.569Z,101731.85
2023-04-05T04:44:37.696Z,101734.36
2023-04-05T04:47:40.316Z,101732.79
2023-04-05T04:50:26.530Z,101732.27
2023-04-05T04:53:04.665Z,101737.52
2023-04-05T04:55:39.273Z,101737.05
2023-04-05T04:58:16.197Z,101731.80
2023-04-05T05:00:56.008Z,101732.21
2023-04-05T05:03:30.797Z,101731.61
2023-04-05T05:06:07.492Z,101730.14
2023-04-05T05:08:43.171Z,101732.77
2023-04-05T05:11:19.440Z,101734.42
2023-04-05T05:13:54.308Z,101734.64
2023-04-05T05:16:33.972Z,101736.92
2023-04-05T05:19:10.109Z,101735.84
2023-04-05T05:22:00.328Z,101736.15
2023-04-05T05:24:36.001Z,101739.35
2023-04-05T05:27:13.153Z,101736.79
2023-04-05T05:29:50.904Z,101737.63
2023-04-05T05:32:27.557Z,101739.52
2023-04-05T05:35:31.063Z,101740.77
2023-04-05T05:38:10.692Z,101737.02
2023-04-05T05:40:55.772Z,101735.42
2023-04-05T05:43:33.214Z,101735.08
2023-04-05T05:46:08.401Z,101732.81
2023-04-05T05:48:42.176Z,101734.08
2023-04-05T05:51:20.886Z,101731.48
2023-04-05T05:53:57.001Z,101728.13
2023-04-05T05:56:33.686Z,101732.89
2023-04-05T05:59:08.838Z,101731.29
2023-04-05T06:01:48.446Z,101726.64
2023-04-05T06:04:42.199Z,101727.64
2023-04-05T06:07:17.668Z,101728.63
2023-04-05T06:09:52.457Z,101727.89
2023-04-05T06:12:28.885Z,101732.19
2023-04-05T06:15:05.374Z,101733.38
2023-04-05T06:17:42.802Z,101729.38
2023-04-05T06:20:19.222Z,101729.52
2023-04-05T06:22:54.977Z,101733.36
2023-04-05T06:25:34.038Z,101733.23
2023-04-05T06:28:09.474Z,101732.70
2023-04-05T06:30:46.282Z,101733.13
2023-04-05T06:33:22.562Z,101732.01
2023-04-05T06:35:58.713Z,101726.53
2023-04-05T06:38:37.471Z,101724.80
2023-04-05T06:41:13.343Z,101721.84
2023-04-05T06:43:50.294Z,101724.81
2023-04-05T06:46:29.215Z,101724.02
2023-04-05T06:49:04.147Z,101723.22
2023-04-05T06:51:40.146Z,101722.52
2023-04-05T06:54:15.955Z,101723.58
2023-04-05T06:56:54.412Z,101720.57
2023-04-05T06:59:29.256Z,101722.65
2023-04-05T07:02:06.763Z,101722.09
2023-04-05T07:04:42.569Z,101717.81
2023-04-05T07:07:17.615Z,101714.78
2023-04-05T07:09:54.346Z,101715.39
2023-04-05T07:12:29.992Z,101712.06
2023-04-05T07:15:07.664Z,101710.87
2023-04-05T07:17:44.654Z,101703.45
2023-04-05T07:20:19.268Z,101707.21
2023-04-05T07:22:55.056Z,101702.77
2023-04-05T07:25:30.514Z,101701.30
2023-04-05T07:28:06.609Z,101702.42
2023-04-05T07:30:44.591Z,101706.51
2023-04-05T07:33:20.067Z,101705.84
2023-04-05T07:35:59.735Z,101707.77
2023-04-05T07:38:36.430Z,101704.27
2023-04-05T07:41:11.744Z,101703.13
2023-04-05T07:43:48.517Z,101701.14
2023-04-05T07:46:30.196Z,101704.75
2023-04-05T07:49:07.952Z,101703.41
2023-04-05T07:51:44.979Z,101699.35
2023-04-05T07:54:21.881Z,101701.71
2023-04-05T07:56:58.442Z,101700.72
2023-04-05T07:59:32.975Z,101698.71
2023-04-05T08:02:14.666Z,101702.83
2023-04-05T08:04:50.663Z,101700.91
2023-04-05T08:07:27.601Z,101699.42
2023-04-05T08:10:04.291Z,101702.02
2023-04-05T08:12:39.139Z,101702.87
2023-04-05T08:15:16.914Z,101698.80
2023-04-05T08:17:51.158Z,101698.34
2023-04-05T08:20:27.045Z,101700.34
2023-04-05T08:23:06.381Z,101702.34
2023-04-05T08:25:45.352Z,101702.05
2023-04-05T08:28:21.169Z,101700.94
2023-04-05T08:30:58.820Z,101695.63
2023-04-05T08:33:34.330Z,101694.67
2023-04-05T08:36:13.229Z,101696.21
2023-04-05T08:38:52.358Z,101693.40
2023-04-05T08:41:34.230Z,101689.15
2023-04-05T08:44:14.347Z,101683.22
2023-04-05T08:46:52.956Z,101683.39
2023-04-05T08:49:31.533Z,101685.70
2023-04-05T08:52:08.076Z,101683.10
2023-04-05T08:54:47.096Z,101684.82
2023-04-05T08:57:31.745Z,101683.20
2023-04-05T09:00:12.503Z,101685.41
2023-04-05T09:02:51.657Z,101682.12
2023-04-05T09:05:29.270Z,101682.00
2023-04-05T09:08:06.033Z,101683.48
2023-04-05T09:10:41.662Z,101689.42
2023-04-05T09:13:18.512Z,101691.42
2023-04-05T09:15:54.810Z,101689.02
2023-04-05T09:18:30.145Z,101690.31
2023-04-05T09:21:10.492Z,101692.83
2023-04-05T09:23:57.752Z,101693.50
2023-04-05T09:26:34.373Z,101695.66
2023-04-05T09:29:09.893Z,101692.20
2023-04-05T09:31:45.463Z,101692.42
2023-04-05T09:34:25.350Z,101697.91
2023-04-05T09:37:01.150Z,101694.57
2023-04-05T09:39:39.580Z,101697.21
2023-04-05T09:42:17.564Z,101693.86
2023-04-05T09:45:02.856Z,101692.21
2023-04-05T09:50:26.981Z,101694.12
2023-04-05T09:53:16.072Z,101694.10
2023-04-05T09:55:53.970Z,101696.09
2023-04-05T09:58:37.036Z,101696.95
2023-04-05T10:01:19.693Z,101693.27
2023-04-05T10:03:57.954Z,101693.45
2023-04-05T10:06:43.668Z,101692.98
2023-04-05T10:09:20.214Z,101693.59
2023-04-05T10:11:56.807Z,101691.97
2023-04-05T10:14:33.592Z,101689.05
2023-04-05T10:17:14.940Z,101689.79
2023-04-05T10:19:59.671Z,101684.38
2023-04-05T10:22:38.874Z,101680.67
2023-04-05T10:25:24.546Z,101678.43
2023-04-05T10:28:05.164Z,101677.49
2023-04-05T10:30:43.552Z,101675.56
2023-04-05T10:33:23.334Z,101670.98
2023-04-05T10:36:06.685Z,101670.45
2023-04-05T10:38:52.906Z,101671.34
2023-04-05T10:41:26.341Z,101670.59
2023-04-05T10:44:06.396Z,101673.33
2023-04-05T10:46:47.931Z,101674.23
2023-04-05T10:49:30.890Z,101672.61
2023-04-05T10:52:05.924Z,101676.36
2023-04-05T10:54:43.593Z,101669.60
2023-04-05T10:57:21.100Z,101667.05
2023-04-05T10:59:57.693Z,101670.77
2023-04-05T11:02:32.632Z,101665.78
2023-04-05T11:05:30.108Z,101667.64
2023-04-05T11:08:08.607Z,101670.31
2023-04-05T11:10:44.287Z,101665.52
2023-04-05T11:13:19.299Z,101664.31
2023-04-05T11:16:11.962Z,101663.68
2023-04-05T11:18:50.157Z,101663.98
2023-04-05T11:21:45.054Z,101664.37
2023-04-05T11:24:20.238Z,101660.11
2023-04-05T11:27:02.094Z,101659.05
2023-04-05T11:29:51.664Z,101658.66
2023-04-05T11:32:26.111Z,101652.92
2023-04-05T11:35:17.949Z,101659.66
2023-04-05T11:38:10.640Z,101656.58
2023-04-05T11:40:45.472Z,101652.00
2023-04-05T11:43:18.984Z,101653.66
2023-04-05T11:45:56.258Z,101653.30
2023-04-05T11:48:29.945Z,101651.21
2023-04-05T11:51:08.822Z,101653.61
2023-04-05T11:53:42.665Z,101651.20
2023-04-05T11:56:17.812Z,101648.10
2023-04-05T11:58:51.850Z,101646.70
2023-04-05T12:01:25.200Z,101644.86
2023-04-05T12:03:58.953Z,101647.44
2023-04-05T12:06:32.636Z,101642.38
2023-04-05T12:09:10.179Z,101642.09
2023-04-05T12:11:46.096Z,101638.25
2023-04-05T12:14:19.587Z,101636.80
2023-04-05T12:16:54.096Z,101638.13
2023-04-05T12:19:34.258Z,101629.86
2023-04-05T12:22:08.196Z,101632.90
2023-04-05T12:24:42.489Z,101631.05
2023-04-05T12:27:17.251Z,101629.53
2023-04-05T12:30:09.762Z,101625.15
2023-04-05T12:32:50.266Z,101626.68
2023-04-05T12:35:32.052Z,101624.85
2023-04-05T12:38:10.572Z,101620.11
2023-04-05T12:40:45.959Z,101618.33
2023-04-05T12:43:20.528Z,101617.70
2023-04-05T12:45:58.777Z,101616.16
2023-04-05T12:48:34.016Z,101618.00
2023-04-05T12:51:18.101Z,101613.17
2023-04-05T12:53:52.254Z,101610.02
2023-04-05T12:56:26.213Z,101608.66
2023-04-05T12:59:00.444Z,101608.72
2023-04-05T13:01:34.284Z,101607.55
2023-04-05T13:04:16.148Z,101609.70
2023-04-05T13:06:50.809Z,101609.66
2023-04-05T13:09:24.064Z,101608.94
2023-04-05T13:11:58.865Z,101605.49
2023-04-05T13:14:32.248Z,101605.00
2023-04-05T13:17:05.867Z,101604.77
2023-04-05T13:19:39.627Z,101603.95
2023-04-05T13:22:12.435Z,101605.74
2023-04-05T13:24:47.448Z,101603.56
2023-04-05T13:27:21.600Z,101601.51
2023-04-05T13:29:55.090Z,101597.23
2023-04-05T13:32:28.542Z,101593.84
2023-04-05T13:35:01.693Z,101597.83
2023-04-05T13:37:34.401Z,101593.30
2023-04-05T13:40:08.980Z,101590.19
2023-04-05T13:42:42.628Z,101590.55
2023-04-05T13:45:15.617Z,101590.63
2023-04-05T13:47:48.659Z,101594.62
2023-04-05T13:50:22.470Z,101596.00
2023-04-05T13:52:56.311Z,101593.86
2023-04-05T13:55:29.039Z,101594.54
2023-04-05T13:58:02.498Z,101599.85
2023-04-05T14:00:36.566Z,101603.73
2023-04-05T14:03:11.948Z,101603.03
2023-04-05T14:05:49.193Z,101605.05
2023-04-05T14:08:23.323Z,101608.17
2023-04-05T14:10:56.672Z,101607.68
2023-04-05T14:13:30.509Z,101605.67
2023-04-05T14:16:04.526Z,101601.33
2023-04-05T14:18:37.819Z,101600.15
2023-04-05T14:21:12.454Z,101600.36
2023-04-05T14:23:47.097Z,101605.69
2023-04-05T14:26:20.012Z,101608.05
2023-04-05T14:28:54.705Z,101607.31
2023-04-05T14:31:29.090Z,101609.86
2023-04-05T14:34:02.252Z,101609.43
2023-04-05T14:36:35.137Z,101611.93
2023-04-05T14:39:09.750Z,101608.54
2023-04-05T14:41:42.489Z,101610.35
2023-04-05T14:44:16.489Z,101610.79
2023-04-05T14:46:52.483Z,101612.59
2023-04-05T14:49:27.625Z,101613.39
2023-04-05T14:52:01.147Z,101615.74
2023-04-05T14:54:35.365Z,101621.44
2023-04-05T14:57:09.358Z,101621.95
2023-04-05T14:59:43.659Z,101627.05
2023-04-05T15:02:17.625Z,101626.25
2023-04-05T15:04:52.534Z,101627.05
2023-04-05T15:07:25.777Z,101629.45
2023-04-05T15:09:59.856Z,101629.95
2023-04-05T15:12:33.502Z,101629.27
2023-04-05T15:15:09.635Z,101626.27
2023-04-05T15:17:44.056Z,101628.75
2023-04-05T15:20:17.198Z,101636.08
2023-04-05T15:22:51.302Z,101636.52
2023-04-05T15:25:24.192Z,101636.94
2023-04-05T15:28:00.282Z,101632.64
2023-04-05T15:30:35.913Z,101634.35
2023-04-05T15:33:09.776Z,101630.71
2023-04-05T15:35:43.511Z,101635.23
2023-04-05T15:38:16.921Z,101630.77
2023-04-05T15:40:53.025Z,101630.23
2023-04-05T15:43:26.887Z,101636.38
2023-04-05T15:46:00.311Z,101634.39
2023-04-05T15:48:34.408Z,101636.77
2023-04-05T15:51:09.127Z,101639.00
2023-04-05T15:53:42.761Z,101639.72
2023-04-05T15:56:16.785Z,101641.36
2023-04-05T15:58:50.262Z,101643.23
2023-04-05T16:01:24.573Z,101641.75
2023-04-05T16:03:57.452Z,101643.86
2023-04-05T16:06:31.646Z,101643.63
2023-04-05T16:09:06.145Z,101644.70
2023-04-05T16:11:39.890Z,101647.64
2023-04-05T16:14:14.080Z,101645.76
2023-04-05T16:16:53.737Z,101643.31
2023-04-05T16:19:27.718Z,101645.26
2023-04-05T16:22:03.503Z,101650.53
2023-04-05T16:24:38.587Z,101651.70
2023-04-05T16:27:12.584Z,101652.88
2023-04-05T16:29:46.862Z,101652.01
2023-04-05T16:32:20.454Z,101652.41
2023-04-05T16:34:54.104Z,101649.78
2023-04-05T16:37:28.630Z,101651.09
2023-04-05T16:40:03.075Z,101655.23
2023-04-05T16:42:36.437Z,101655.98
2023-04-05T16:45:13.266Z,101658.39
2023-04-05T16:47:46.923Z,101660.85
2023-04-05T16:50:21.245Z,101664.48
2023-04-05T16:52:54.553Z,101666.34
2023-04-05T16:55:27.907Z,101665.76
2023-04-05T16:58:01.722Z,101663.64
2023-04-05T17:00:36.040Z,101666.86
2023-04-05T17:03:09.426Z,101667.59
2023-04-05T17:05:42.784Z,101669.96
2023-04-05T17:08:15.941Z,101673.51
2023-04-05T17:10:49.732Z,101674.98
2023-04-05T17:13:23.695Z,101677.58
2023-04-05T17:15:57.083Z,101679.63
2023-04-05T17:18:30.690Z,101677.17
2023-04-05T17:21:05.259Z,101685.21
2023-04-05T17:23:39.189Z,101685.56
2023-04-05T17:26:12.806Z,101688.70
2023-04-05T17:28:46.218Z,101687.98
2023-04-05T17:31:19.261Z,101688.48
2023-04-05T17:33:52.779Z,101690.27
2023-04-05T17:36:26.278Z,101698.84
2023-04-05T17:38:59.851Z,101698.13
2023-04-05T17:41:32.881Z,101697.98
2023-04-05T17:44:06.516Z,101701.89
2023-04-05T17:46:46.351Z,101705.46
2023-04-05T17:49:24.628Z,101706.64
2023-04-05T17:51:57.672Z,101711.23
2023-04-05T17:54:32.009Z,101713.59
2023-04-05T17:57:05.317Z,101718.30
2023-04-05T17:59:38.465Z,101716.98
2023-04-05T18:02:12.389Z,101718.39
2023-04-05T18:04:45.891Z,101723.79
2023-04-05T18:07:19.518Z,101720.32
2023-04-05T18:09:52.581Z,101722.01
2023-04-05T18:12:27.813Z,101724.26
2023-04-05T18:15:01.525Z,101726.98
2023-04-05T18:17:35.148Z,101729.39
2023-04-05T18:20:11.016Z,101728.10
2023-04-05T18:22:44.003Z,101730.29
2023-04-05T18:25:21.451Z,101728.99
2023-04-05T18:27:55.208Z,101730.11
2023-04-05T18:30:28.549Z,101730.98
2023-04-05T18:33:01.981Z,101731.91
2023-04-05T18:35:35.404Z,101733.92
2023-04-05T18:38:09.090Z,101734.26
2023-04-05T18:40:43.387Z,101736.27
2023-04-05T18:43:17.935Z,101739.20
2023-04-05T18:45:55.923Z,101741.17
2023-04-05T18:48:29.250Z,101743.66
2023-04-05T18:51:02.592Z,101746.03
2023-04-05T18:53:35.629Z,101746.09
2023-04-05T18:56:10.575Z,101751.08
2023-04-05T18:58:46.058Z,101754.60
2023-04-05T19:01:20.810Z,101756.45
2023-04-05T19:03:54.192Z,101760.17
2023-04-05T19:06:29.596Z,101759.11
2023-04-05T19:09:05.345Z,101762.91
2023-04-05T19:11:39.279Z,101765.90
2023-04-05T19:14:13.166Z,101767.73
2023-04-05T19:16:48.455Z,101766.88
2023-04-05T19:19:22.721Z,101771.30
2023-04-05T19:21:59.174Z,101772.08
2023-04-05T19:24:34.119Z,101772.69
2023-04-05T19:27:07.426Z,101775.92
2023-04-05T19:29:40.842Z,101774.23
2023-04-05T19:32:14.435Z,101773.73
2023-04-05T19:34:47.626Z,101771.05
2023-04-05T19:37:21.944Z,101772.77
2023-04-05T19:39:55.717Z,101775.87
2023-04-05T19:42:29.567Z,101775.68
2023-04-05T19:45:03.610Z,101777.58
2023-04-05T19:47:43.540Z,101774.73
2023-04-05T19:50:48.744Z,101775.70
2023-04-05T19:53:43.093Z,101772.15
2023-04-05T19:56:21.202Z,101775.08
2023-04-05T19:58:59.517Z,101773.02
2023-04-05T20:01:38.279Z,101779.34
2023-04-05T20:04:17.310Z,101779.50
2023-04-05T20:06:53.359Z,101779.19
2023-04-05T20:09:29.012Z,101780.02
2023-04-05T20:12:03.897Z,101776.42
2023-04-05T20:14:42.243Z,101773.20
2023-04-05T20:17:18.969Z,101775.71
2023-04-05T20:20:01.202Z,101777.89
2023-04-05T20:22:35.852Z,101772.18
2023-04-05T20:25:44.235Z,101770.20
2023-04-05T20:28:35.525Z,101772.88
2023-04-05T20:31:11.331Z,101770.85
2023-04-05T20:33:54.075Z,101769.50
2023-04-05T20:36:34.452Z,101765.00
2023-04-05T20:39:08.450Z,101765.05
2023-04-05T20:41:42.846Z,101765.36
2023-04-05T20:44:16.181Z,101761.03
2023-04-05T20:46:49.087Z,101760.80
2023-04-05T20:49:22.425Z,101761.74
2023-04-05T20:51:57.361Z,101757.45
2023-04-05T20:54:31.717Z,101759.36
2023-04-05T20:57:05.819Z,101756.56
2023-04-05T20:59:38.744Z,101753.02
2023-04-05T21:02:11.577Z,101751.45
2023-04-05T21:04:45.734Z,101752.06
2023-04-05T21:07:19.201Z,101745.70
2023-04-05T21:09:52.374Z,101748.46
2023-04-05T21:12:25.387Z,101749.06
2023-04-05T21:15:00.408Z,101748.85
2023-04-05T21:17:34.078Z,101748.23
2023-04-05T21:20:08.489Z,101750.66
2023-04-05T21:22:41.509Z,101749.98
2023-04-05T21:25:14.555Z,101746.33
2023-04-05T21:27:49.397Z,101749.90
2023-04-05T21:30:22.522Z,101749.64
2023-04-05T21:32:57.612Z,101746.77
2023-04-05T21:35:31.463Z,101745.11
2023-04-05T21:38:04.854Z,101747.23
2023-04-05T21:40:37.845Z,101748.02
2023-04-05T21:43:11.389Z,101745.80
2023-04-05T21:45:45.976Z,101749.52
2023-04-05T21:48:19.031Z,101750.45
2023-04-05T21:50:52.152Z,101747.15
2023-04-05T21:53:25.566Z,101745.24
2023-04-05T21:55:59.073Z,101743.98
2023-04-05T21:58:33.681Z,101747.60
2023-04-05T22:01:06.741Z,101747.80
2023-04-05T22:03:39.571Z,101745.54
2023-04-05T22:06:13.272Z,101747.58
2023-04-05T22:08:47.804Z,101745.16
2023-04-05T22:11:22.401Z,101749.48
2023-04-05T22:13:56.564Z,101750.27
2023-04-05T22:16:29.993Z,101754.36
2023-04-05T22:19:04.770Z,101754.19
2023-04-05T22:21:37.715Z,101754.08
2023-04-05T22:24:12.426Z,101758.08
2023-04-05T22:26:45.351Z,101761.73
2023-04-05T22:29:18.129Z,101764.14
2023-04-05T22:31:51.091Z,101765.58
2023-04-05T22:34:23.878Z,101768.88
2023-04-05T22:36:57.145Z,101770.75
2023-04-05T22:39:30.337Z,101773.73
2023-04-05T22:42:03.486Z,101774.56
2023-04-05T22:44:36.392Z,101772.73
2023-04-05T22:47:09.156Z,101776.98
2023-04-05T22:49:42.078Z,101773.02
2023-04-05T22:52:14.898Z,101776.44
2023-04-05T22:54:47.707Z,101778.09
2023-04-05T22:57:20.737Z,101778.69
2023-04-05T22:59:53.983Z,101779.03
2023-04-05T23:02:29.587Z,101780.39
2023-04-05T23:05:02.982Z,101779.02
2023-04-05T23:07:35.842Z,101783.09
2023-04-05T23:10:11.214Z,101782.52
2023-04-05T23:12:44.706Z,101782.77
2023-04-05T23:15:18.497Z,101786.17
2023-04-05T23:17:52.575Z,101778.77
2023-04-05T23:20:25.803Z,101782.30
2023-04-05T23:22:58.925Z,101786.98
2023-04-05T23:25:32.232Z,101784.08
2023-04-05T23:28:05.050Z,101787.61
2023-04-05T23:30:38.089Z,101789.24
2023-04-05T23:33:13.123Z,101787.95
2023-04-05T23:35:47.245Z,101789.19
2023-04-05T23:38:20.446Z,101788.87
2023-04-05T23:40:53.941Z,101788.92
2023-04-05T23:43:26.674Z,101785.54
2023-04-05T23:46:01.065Z,101781.69
2023-04-05T23:48:34.417Z,101785.80
2023-04-05T23:51:09.118Z,101790.02
2023-04-05T23:53:42.237Z,101790.62
2023-04-05T23:56:16.628Z,101789.08
2023-04-05T23:58:49.863Z,101791.55
